AXI400 CYYZ-KTYS
Flight info
| Callsign | AXI400 |
|---|---|
| Flight time | 1h 29m |
| Altitude | 43000 |
| Route | BETES3 FOXEE DCT CORVS DCT HNN DCT JONEN Q67 CEMEX |
| Aircraft | E55P/M-SBDFGHJ2RWY/LB2 |
Departure
| Time | 2026-05-09 15:10 |
|---|---|
| Airport | Toronto Pearson International Airport (CYYZ) |
Arrival
| Time | 2026-05-09 16:39 |
|---|---|
| Airport | McGhee Tyson Airport (KTYS) |
| Time | Latitude | Longitude | Altitude | Speed | Heading |
|---|---|---|---|---|---|
| 2026-05-09 14:53 | 43.68915 | -79.65003 | 549 ft | 0 kts | 313° |
| 2026-05-09 15:06 | 43.69101 | -79.64572 | 547 ft | 12 kts | 46° |
| 2026-05-09 15:06 | 43.69161 | -79.64484 | 546 ft | 13 kts | 46° |
| 2026-05-09 15:06 | 43.69224 | -79.64393 | 546 ft | 13 kts | 47° |
| 2026-05-09 15:06 | 43.69289 | -79.64298 | 546 ft | 13 kts | 46° |
| 2026-05-09 15:07 | 43.69346 | -79.64191 | 546 ft | 14 kts | 63° |
| 2026-05-09 15:07 | 43.69387 | -79.64067 | 545 ft | 14 kts | 64° |
| 2026-05-09 15:07 | 43.69430 | -79.63937 | 545 ft | 15 kts | 66° |
| 2026-05-09 15:07 | 43.69475 | -79.63804 | 545 ft | 15 kts | 66° |
| 2026-05-09 15:08 | 43.69516 | -79.63674 | 545 ft | 12 kts | 78° |
| 2026-05-09 15:08 | 43.69416 | -79.63511 | 545 ft | 9 kts | 187° |
| 2026-05-09 15:08 | 43.69344 | -79.63607 | 544 ft | 36 kts | 227° |
| 2026-05-09 15:09 | 43.68981 | -79.64132 | 541 ft | 112 kts | 226° |
| 2026-05-09 15:10 | 43.63410 | -79.74984 | 5549 ft | 245 kts | 232° |
| 2026-05-09 15:11 | 43.62032 | -79.76289 | 6669 ft | 249 kts | 197° |
| 2026-05-09 15:11 | 43.60313 | -79.76351 | 7545 ft | 257 kts | 180° |
| 2026-05-09 15:11 | 43.58504 | -79.76195 | 8260 ft | 267 kts | 180° |
| 2026-05-09 15:11 | 43.56611 | -79.76016 | 9056 ft | 273 kts | 180° |
| 2026-05-09 15:12 | 43.54702 | -79.75829 | 9869 ft | 278 kts | 180° |
| 2026-05-09 15:12 | 43.52771 | -79.75763 | 10475 ft | 288 kts | 185° |
| 2026-05-09 15:12 | 43.50653 | -79.75810 | 10583 ft | 318 kts | 185° |
| 2026-05-09 15:12 | 43.48487 | -79.75859 | 11273 ft | 324 kts | 185° |
| 2026-05-09 15:13 | 43.46280 | -79.75910 | 12188 ft | 321 kts | 185° |
| 2026-05-09 15:13 | 43.44028 | -79.75964 | 12982 ft | 324 kts | 186° |
| 2026-05-09 15:13 | 43.41790 | -79.76019 | 13706 ft | 328 kts | 186° |
| 2026-05-09 15:13 | 43.39496 | -79.76077 | 14451 ft | 332 kts | 186° |
| 2026-05-09 15:14 | 43.37180 | -79.76134 | 15226 ft | 335 kts | 186° |
| 2026-05-09 15:14 | 43.34852 | -79.76188 | 15967 ft | 338 kts | 186° |
| 2026-05-09 15:14 | 43.32491 | -79.76247 | 16665 ft | 342 kts | 187° |
| 2026-05-09 15:14 | 43.30104 | -79.76305 | 17370 ft | 345 kts | 187° |
| 2026-05-09 15:15 | 43.27703 | -79.76364 | 18062 ft | 349 kts | 187° |
| 2026-05-09 15:15 | 43.25285 | -79.76502 | 18727 ft | 347 kts | 194° |
| 2026-05-09 15:15 | 43.23037 | -79.77290 | 19373 ft | 346 kts | 199° |
| 2026-05-09 15:15 | 43.20675 | -79.78069 | 20029 ft | 349 kts | 200° |
| 2026-05-09 15:16 | 43.18318 | -79.78872 | 20667 ft | 352 kts | 200° |
| 2026-05-09 15:16 | 43.15921 | -79.79687 | 21280 ft | 355 kts | 200° |
| 2026-05-09 15:16 | 43.13528 | -79.80496 | 22027 ft | 354 kts | 199° |
| 2026-05-09 15:16 | 43.11134 | -79.81307 | 22840 ft | 351 kts | 199° |
| 2026-05-09 15:17 | 43.08757 | -79.82110 | 23644 ft | 348 kts | 200° |
| 2026-05-09 15:17 | 43.06365 | -79.82924 | 23835 ft | 363 kts | 199° |
| 2026-05-09 15:17 | 43.03890 | -79.83762 | 23865 ft | 379 kts | 199° |
| 2026-05-09 15:17 | 43.01256 | -79.84654 | 23883 ft | 394 kts | 199° |
| 2026-05-09 15:18 | 42.98542 | -79.85568 | 23897 ft | 407 kts | 199° |
| 2026-05-09 15:18 | 42.95794 | -79.86491 | 24067 ft | 415 kts | 199° |
| 2026-05-09 15:18 | 42.92990 | -79.87427 | 24629 ft | 413 kts | 199° |
| 2026-05-09 15:18 | 42.90205 | -79.88364 | 25328 ft | 408 kts | 199° |
| 2026-05-09 15:19 | 42.87442 | -79.89290 | 26000 ft | 405 kts | 199° |
| 2026-05-09 15:19 | 42.84723 | -79.90204 | 26556 ft | 403 kts | 199° |
| 2026-05-09 15:19 | 42.81957 | -79.91057 | 27055 ft | 406 kts | 196° |
| 2026-05-09 15:19 | 42.79204 | -79.91737 | 27538 ft | 406 kts | 197° |
| 2026-05-09 15:20 | 42.76418 | -79.92445 | 28123 ft | 404 kts | 197° |
| 2026-05-09 15:20 | 42.70867 | -79.93861 | 29241 ft | 402 kts | 197° |
| 2026-05-09 15:20 | 42.68098 | -79.94571 | 29540 ft | 407 kts | 197° |
| 2026-05-09 15:21 | 42.65308 | -79.95284 | 30050 ft | 406 kts | 197° |
| 2026-05-09 15:21 | 42.62564 | -79.95978 | 30667 ft | 403 kts | 197° |
| 2026-05-09 15:21 | 42.59780 | -79.96686 | 31211 ft | 401 kts | 197° |
| 2026-05-09 15:21 | 42.57088 | -79.97372 | 31706 ft | 398 kts | 197° |
| 2026-05-09 15:22 | 42.54345 | -79.98065 | 32195 ft | 397 kts | 198° |
| 2026-05-09 15:22 | 42.51652 | -79.98751 | 32649 ft | 394 kts | 198° |
| 2026-05-09 15:22 | 42.48987 | -79.99426 | 33056 ft | 392 kts | 198° |
| 2026-05-09 15:22 | 42.46315 | -80.00101 | 33423 ft | 390 kts | 198° |
| 2026-05-09 15:23 | 42.43650 | -80.00777 | 33727 ft | 390 kts | 198° |
| 2026-05-09 15:23 | 42.40972 | -80.01454 | 34056 ft | 389 kts | 198° |
| 2026-05-09 15:23 | 42.38345 | -80.02117 | 34403 ft | 387 kts | 198° |
| 2026-05-09 15:23 | 42.35707 | -80.02784 | 34699 ft | 386 kts | 198° |
| 2026-05-09 15:24 | 42.33042 | -80.03459 | 34869 ft | 389 kts | 199° |
| 2026-05-09 15:24 | 42.30379 | -80.04130 | 35052 ft | 392 kts | 198° |
| 2026-05-09 15:24 | 42.27707 | -80.04802 | 35304 ft | 392 kts | 198° |
| 2026-05-09 15:24 | 42.25055 | -80.05481 | 35528 ft | 391 kts | 200° |
| 2026-05-09 15:25 | 42.22484 | -80.06528 | 35769 ft | 385 kts | 205° |
| 2026-05-09 15:25 | 42.19906 | -80.07622 | 36020 ft | 386 kts | 205° |
| 2026-05-09 15:25 | 42.17361 | -80.08707 | 36208 ft | 388 kts | 205° |
| 2026-05-09 15:26 | 42.12793 | -80.10641 | 36547 ft | 390 kts | 205° |
| 2026-05-09 15:26 | 42.10171 | -80.11749 | 36712 ft | 392 kts | 205° |
| 2026-05-09 15:26 | 42.07587 | -80.12839 | 36923 ft | 392 kts | 205° |
| 2026-05-09 15:26 | 42.04937 | -80.13958 | 37127 ft | 392 kts | 205° |
| 2026-05-09 15:27 | 42.02341 | -80.15050 | 37295 ft | 393 kts | 205° |
| 2026-05-09 15:27 | 41.99704 | -80.16164 | 37453 ft | 394 kts | 205° |
| 2026-05-09 15:27 | 41.97118 | -80.17253 | 37637 ft | 395 kts | 205° |
| 2026-05-09 15:27 | 41.94477 | -80.18364 | 37785 ft | 396 kts | 205° |
| 2026-05-09 15:28 | 41.91848 | -80.19468 | 37944 ft | 396 kts | 205° |
| 2026-05-09 15:28 | 41.89203 | -80.20578 | 38096 ft | 396 kts | 205° |
| 2026-05-09 15:28 | 41.86539 | -80.21697 | 38246 ft | 397 kts | 205° |
| 2026-05-09 15:28 | 41.83898 | -80.22805 | 38300 ft | 401 kts | 205° |
| 2026-05-09 15:29 | 41.81213 | -80.23928 | 38523 ft | 400 kts | 205° |
| 2026-05-09 15:29 | 41.78557 | -80.25040 | 38721 ft | 400 kts | 205° |
| 2026-05-09 15:29 | 41.75908 | -80.26148 | 38899 ft | 400 kts | 205° |
| 2026-05-09 15:29 | 41.73352 | -80.27216 | 39115 ft | 400 kts | 205° |
| 2026-05-09 15:30 | 41.70687 | -80.28327 | 39334 ft | 399 kts | 205° |
| 2026-05-09 15:30 | 41.68012 | -80.29443 | 39494 ft | 399 kts | 205° |
| 2026-05-09 15:30 | 41.62666 | -80.31672 | 39573 ft | 406 kts | 205° |
| 2026-05-09 15:31 | 41.59981 | -80.32787 | 39780 ft | 405 kts | 205° |
| 2026-05-09 15:31 | 41.57268 | -80.33917 | 39803 ft | 409 kts | 205° |
| 2026-05-09 15:31 | 41.51790 | -80.36185 | 39810 ft | 402 kts | 205° |
| 2026-05-09 15:32 | 41.49163 | -80.37270 | 39794 ft | 391 kts | 205° |
| 2026-05-09 15:32 | 41.46561 | -80.38348 | 39801 ft | 390 kts | 205° |
| 2026-05-09 15:32 | 41.41387 | -80.40492 | 39814 ft | 390 kts | 205° |
| 2026-05-09 15:33 | 41.36168 | -80.42649 | 39816 ft | 390 kts | 205° |
| 2026-05-09 15:33 | 41.30964 | -80.44792 | 39822 ft | 390 kts | 205° |
| 2026-05-09 15:34 | 41.25757 | -80.46936 | 39825 ft | 391 kts | 206° |
| 2026-05-09 15:34 | 41.20589 | -80.49061 | 39827 ft | 391 kts | 205° |
| 2026-05-09 15:35 | 41.15672 | -80.51901 | 39826 ft | 383 kts | 213° |
| 2026-05-09 15:35 | 41.10838 | -80.54963 | 39831 ft | 383 kts | 214° |
| 2026-05-09 15:36 | 41.06011 | -80.58015 | 39828 ft | 383 kts | 213° |
| 2026-05-09 15:36 | 41.01211 | -80.61043 | 39830 ft | 383 kts | 214° |
| 2026-05-09 15:37 | 40.96359 | -80.64101 | 39832 ft | 390 kts | 213° |
| 2026-05-09 15:37 | 40.91519 | -80.67142 | 39845 ft | 399 kts | 213° |
| 2026-05-09 15:38 | 40.86438 | -80.70332 | 39847 ft | 408 kts | 213° |
| 2026-05-09 15:38 | 40.81336 | -80.73532 | 39843 ft | 414 kts | 213° |
| 2026-05-09 15:39 | 40.76198 | -80.76738 | 39847 ft | 407 kts | 213° |
| 2026-05-09 15:39 | 40.71120 | -80.79907 | 39843 ft | 406 kts | 213° |
| 2026-05-09 15:40 | 40.66016 | -80.83092 | 39844 ft | 405 kts | 213° |
| 2026-05-09 15:40 | 40.60941 | -80.86250 | 39843 ft | 404 kts | 213° |
| 2026-05-09 15:41 | 40.55855 | -80.89410 | 39845 ft | 403 kts | 214° |
| 2026-05-09 15:41 | 40.50794 | -80.92549 | 39848 ft | 402 kts | 214° |
| 2026-05-09 15:42 | 40.45746 | -80.95676 | 39849 ft | 401 kts | 214° |
| 2026-05-09 15:42 | 40.40707 | -80.98789 | 39858 ft | 400 kts | 214° |
| 2026-05-09 15:43 | 40.35672 | -81.01898 | 39858 ft | 399 kts | 214° |
| 2026-05-09 15:43 | 40.30642 | -81.04997 | 39860 ft | 399 kts | 214° |
| 2026-05-09 15:44 | 40.25606 | -81.08093 | 39865 ft | 398 kts | 214° |
| 2026-05-09 15:44 | 40.20596 | -81.11169 | 39862 ft | 398 kts | 214° |
| 2026-05-09 15:45 | 40.15573 | -81.14252 | 39846 ft | 398 kts | 214° |
| 2026-05-09 15:45 | 40.10390 | -81.17421 | 39860 ft | 397 kts | 215° |
| 2026-05-09 15:46 | 40.05392 | -81.20476 | 39859 ft | 397 kts | 215° |
| 2026-05-09 15:46 | 40.00372 | -81.23557 | 39867 ft | 395 kts | 216° |
| 2026-05-09 15:47 | 39.95456 | -81.26735 | 39870 ft | 394 kts | 216° |
| 2026-05-09 15:47 | 39.90550 | -81.29896 | 39872 ft | 394 kts | 216° |
| 2026-05-09 15:48 | 39.85636 | -81.33053 | 39875 ft | 393 kts | 217° |
| 2026-05-09 15:48 | 39.80875 | -81.36111 | 39866 ft | 393 kts | 217° |
| 2026-05-09 15:49 | 39.75974 | -81.39252 | 39874 ft | 392 kts | 217° |
| 2026-05-09 15:49 | 39.71059 | -81.42391 | 39861 ft | 392 kts | 217° |
| 2026-05-09 15:50 | 39.66194 | -81.45502 | 39871 ft | 392 kts | 217° |
| 2026-05-09 15:50 | 39.61292 | -81.48627 | 39882 ft | 391 kts | 217° |
| 2026-05-09 15:51 | 39.56423 | -81.51730 | 39880 ft | 391 kts | 217° |
| 2026-05-09 15:51 | 39.51548 | -81.54829 | 39881 ft | 391 kts | 217° |
| 2026-05-09 15:52 | 39.44219 | -81.59475 | 39879 ft | 391 kts | 217° |
| 2026-05-09 15:53 | 39.39352 | -81.62560 | 39884 ft | 391 kts | 217° |
| 2026-05-09 15:53 | 39.34452 | -81.65659 | 39896 ft | 390 kts | 217° |
| 2026-05-09 15:54 | 39.29530 | -81.68767 | 39893 ft | 392 kts | 216° |
| 2026-05-09 15:54 | 39.24607 | -81.71870 | 39889 ft | 393 kts | 216° |
| 2026-05-09 15:55 | 39.19699 | -81.74960 | 39893 ft | 394 kts | 217° |
| 2026-05-09 15:55 | 39.14761 | -81.78055 | 39877 ft | 394 kts | 217° |
| 2026-05-09 15:56 | 39.09832 | -81.81155 | 39877 ft | 394 kts | 217° |
| 2026-05-09 15:56 | 39.04928 | -81.84221 | 39889 ft | 390 kts | 217° |
| 2026-05-09 15:57 | 39.00035 | -81.87282 | 39882 ft | 390 kts | 217° |
| 2026-05-09 15:57 | 38.95129 | -81.90350 | 39886 ft | 392 kts | 217° |
| 2026-05-09 15:58 | 38.90224 | -81.93404 | 39904 ft | 393 kts | 217° |
| 2026-05-09 15:58 | 38.85291 | -81.96474 | 39896 ft | 392 kts | 217° |
| 2026-05-09 15:59 | 38.80386 | -81.99522 | 39908 ft | 391 kts | 217° |
| 2026-05-09 15:59 | 38.75480 | -82.02572 | 39899 ft | 390 kts | 218° |
| 2026-05-09 16:00 | 38.70699 | -82.05836 | 39900 ft | 388 kts | 219° |
| 2026-05-09 16:00 | 38.65926 | -82.09100 | 39888 ft | 385 kts | 219° |
| 2026-05-09 16:01 | 38.61216 | -82.12312 | 39898 ft | 384 kts | 219° |
| 2026-05-09 16:01 | 38.56469 | -82.15547 | 39897 ft | 386 kts | 219° |
| 2026-05-09 16:02 | 38.51729 | -82.18774 | 39904 ft | 387 kts | 220° |
| 2026-05-09 16:02 | 38.44719 | -82.23534 | 39887 ft | 384 kts | 220° |
| 2026-05-09 16:03 | 38.39970 | -82.26759 | 39500 ft | 392 kts | 219° |
| 2026-05-09 16:03 | 38.37569 | -82.28375 | 39065 ft | 388 kts | 219° |
| 2026-05-09 16:03 | 38.35210 | -82.29972 | 38609 ft | 381 kts | 220° |
| 2026-05-09 16:04 | 38.32862 | -82.31558 | 38161 ft | 380 kts | 220° |
| 2026-05-09 16:04 | 38.30506 | -82.33156 | 37725 ft | 386 kts | 220° |
| 2026-05-09 16:04 | 38.28149 | -82.34753 | 37275 ft | 386 kts | 219° |
| 2026-05-09 16:04 | 38.25878 | -82.36280 | 36844 ft | 387 kts | 219° |
| 2026-05-09 16:05 | 38.23639 | -82.37791 | 36424 ft | 388 kts | 219° |
| 2026-05-09 16:05 | 38.21256 | -82.39394 | 36002 ft | 387 kts | 219° |
| 2026-05-09 16:05 | 38.18860 | -82.41009 | 35665 ft | 387 kts | 219° |
| 2026-05-09 16:05 | 38.16457 | -82.42626 | 35335 ft | 392 kts | 219° |
| 2026-05-09 16:06 | 38.14043 | -82.44250 | 35007 ft | 393 kts | 219° |
| 2026-05-09 16:06 | 38.11633 | -82.45866 | 34602 ft | 391 kts | 219° |
| 2026-05-09 16:06 | 38.09215 | -82.47490 | 34207 ft | 394 kts | 219° |
| 2026-05-09 16:06 | 38.06785 | -82.49123 | 33778 ft | 394 kts | 219° |
| 2026-05-09 16:07 | 38.04343 | -82.50755 | 33261 ft | 398 kts | 219° |
| 2026-05-09 16:07 | 38.01889 | -82.52401 | 32752 ft | 399 kts | 218° |
| 2026-05-09 16:07 | 37.99405 | -82.54065 | 32248 ft | 400 kts | 218° |
| 2026-05-09 16:07 | 37.96932 | -82.55713 | 31762 ft | 401 kts | 218° |
| 2026-05-09 16:08 | 37.94468 | -82.57359 | 31289 ft | 404 kts | 218° |
| 2026-05-09 16:08 | 37.92042 | -82.58978 | 30838 ft | 407 kts | 218° |
| 2026-05-09 16:08 | 37.89711 | -82.60528 | 30411 ft | 400 kts | 218° |
| 2026-05-09 16:08 | 37.87260 | -82.62154 | 29947 ft | 388 kts | 218° |
| 2026-05-09 16:09 | 37.84856 | -82.63760 | 29501 ft | 385 kts | 218° |
| 2026-05-09 16:09 | 37.82459 | -82.65356 | 29080 ft | 389 kts | 218° |
| 2026-05-09 16:09 | 37.80068 | -82.66946 | 28672 ft | 386 kts | 218° |
| 2026-05-09 16:09 | 37.77711 | -82.68511 | 28257 ft | 382 kts | 218° |
| 2026-05-09 16:10 | 37.75350 | -82.70074 | 27842 ft | 381 kts | 217° |
| 2026-05-09 16:10 | 37.72994 | -82.71640 | 27424 ft | 380 kts | 217° |
| 2026-05-09 16:10 | 37.70688 | -82.73168 | 27013 ft | 378 kts | 217° |
| 2026-05-09 16:10 | 37.68352 | -82.74716 | 26596 ft | 376 kts | 217° |
| 2026-05-09 16:11 | 37.66048 | -82.76239 | 26182 ft | 376 kts | 217° |
| 2026-05-09 16:11 | 37.63727 | -82.77774 | 25775 ft | 374 kts | 217° |
| 2026-05-09 16:11 | 37.61437 | -82.79287 | 25365 ft | 372 kts | 217° |
| 2026-05-09 16:11 | 37.59149 | -82.80800 | 24957 ft | 369 kts | 217° |
| 2026-05-09 16:12 | 37.56876 | -82.82299 | 24548 ft | 367 kts | 217° |
| 2026-05-09 16:12 | 37.54644 | -82.83771 | 24148 ft | 365 kts | 217° |
| 2026-05-09 16:12 | 37.52382 | -82.85262 | 23741 ft | 365 kts | 217° |
| 2026-05-09 16:12 | 37.50163 | -82.86729 | 23345 ft | 362 kts | 217° |
| 2026-05-09 16:13 | 37.47921 | -82.88205 | 22953 ft | 363 kts | 217° |
| 2026-05-09 16:13 | 37.45689 | -82.89679 | 22560 ft | 360 kts | 216° |
| 2026-05-09 16:13 | 37.43467 | -82.91138 | 22160 ft | 359 kts | 216° |
| 2026-05-09 16:13 | 37.41260 | -82.92594 | 21775 ft | 359 kts | 216° |
| 2026-05-09 16:14 | 37.39035 | -82.94054 | 21378 ft | 357 kts | 216° |
| 2026-05-09 16:14 | 37.36846 | -82.95492 | 21009 ft | 353 kts | 216° |
| 2026-05-09 16:14 | 37.34671 | -82.96924 | 20651 ft | 354 kts | 216° |
| 2026-05-09 16:14 | 37.32494 | -82.98347 | 20265 ft | 351 kts | 216° |
| 2026-05-09 16:15 | 37.30343 | -82.99760 | 19876 ft | 349 kts | 215° |
| 2026-05-09 16:15 | 37.28202 | -83.01162 | 19495 ft | 347 kts | 215° |
| 2026-05-09 16:15 | 37.26063 | -83.02563 | 19119 ft | 347 kts | 215° |
| 2026-05-09 16:15 | 37.23967 | -83.04052 | 18736 ft | 342 kts | 219° |
| 2026-05-09 16:16 | 37.21921 | -83.05578 | 18358 ft | 342 kts | 218° |
| 2026-05-09 16:16 | 37.19902 | -83.07085 | 17975 ft | 339 kts | 218° |
| 2026-05-09 16:16 | 37.17860 | -83.08594 | 17608 ft | 338 kts | 218° |
| 2026-05-09 16:16 | 37.15860 | -83.10078 | 17241 ft | 336 kts | 218° |
| 2026-05-09 16:17 | 37.13845 | -83.11570 | 16875 ft | 335 kts | 218° |
| 2026-05-09 16:17 | 37.11903 | -83.13011 | 16519 ft | 333 kts | 217° |
| 2026-05-09 16:17 | 37.09939 | -83.14462 | 16158 ft | 330 kts | 218° |
| 2026-05-09 16:17 | 37.07966 | -83.15923 | 15792 ft | 328 kts | 218° |
| 2026-05-09 16:18 | 37.06102 | -83.17302 | 15445 ft | 325 kts | 217° |
| 2026-05-09 16:18 | 37.04164 | -83.18732 | 15087 ft | 324 kts | 217° |
| 2026-05-09 16:18 | 37.02245 | -83.20150 | 14739 ft | 321 kts | 217° |
| 2026-05-09 16:18 | 37.00337 | -83.21558 | 14394 ft | 318 kts | 217° |
| 2026-05-09 16:19 | 36.98407 | -83.22978 | 14033 ft | 318 kts | 217° |
| 2026-05-09 16:19 | 36.96527 | -83.24367 | 13687 ft | 314 kts | 217° |
| 2026-05-09 16:19 | 36.94667 | -83.25732 | 13341 ft | 307 kts | 217° |
| 2026-05-09 16:19 | 36.92869 | -83.27049 | 12995 ft | 290 kts | 217° |
| 2026-05-09 16:20 | 36.91179 | -83.28291 | 12677 ft | 274 kts | 218° |
| 2026-05-09 16:20 | 36.89579 | -83.29469 | 12378 ft | 266 kts | 218° |
| 2026-05-09 16:20 | 36.87980 | -83.30650 | 12090 ft | 268 kts | 218° |
| 2026-05-09 16:20 | 36.86346 | -83.31853 | 11801 ft | 271 kts | 218° |
| 2026-05-09 16:21 | 36.84729 | -83.33042 | 11503 ft | 270 kts | 218° |
| 2026-05-09 16:21 | 36.83130 | -83.34212 | 11208 ft | 267 kts | 218° |
| 2026-05-09 16:21 | 36.81509 | -83.35403 | 10908 ft | 267 kts | 218° |
| 2026-05-09 16:21 | 36.79908 | -83.36585 | 10615 ft | 267 kts | 217° |
| 2026-05-09 16:22 | 36.78312 | -83.37749 | 10320 ft | 266 kts | 217° |
| 2026-05-09 16:22 | 36.76731 | -83.38909 | 10039 ft | 265 kts | 217° |
| 2026-05-09 16:22 | 36.75118 | -83.39995 | 9979 ft | 267 kts | 213° |
| 2026-05-09 16:22 | 36.73447 | -83.41058 | 9974 ft | 265 kts | 214° |
| 2026-05-09 16:23 | 36.71799 | -83.42113 | 9976 ft | 267 kts | 214° |
| 2026-05-09 16:23 | 36.70138 | -83.43175 | 9973 ft | 267 kts | 213° |
| 2026-05-09 16:23 | 36.68484 | -83.44234 | 9970 ft | 268 kts | 214° |
| 2026-05-09 16:23 | 36.66840 | -83.45282 | 9974 ft | 268 kts | 214° |
| 2026-05-09 16:24 | 36.65158 | -83.46359 | 9974 ft | 269 kts | 214° |
| 2026-05-09 16:24 | 36.63517 | -83.47405 | 9967 ft | 269 kts | 214° |
| 2026-05-09 16:24 | 36.61863 | -83.48465 | 9965 ft | 269 kts | 214° |
| 2026-05-09 16:24 | 36.60186 | -83.49535 | 9969 ft | 267 kts | 214° |
| 2026-05-09 16:25 | 36.58524 | -83.50594 | 9971 ft | 268 kts | 214° |
| 2026-05-09 16:25 | 36.56875 | -83.51643 | 9966 ft | 267 kts | 214° |
| 2026-05-09 16:25 | 36.55219 | -83.52700 | 9974 ft | 267 kts | 214° |
| 2026-05-09 16:25 | 36.53552 | -83.53763 | 9977 ft | 265 kts | 214° |
| 2026-05-09 16:26 | 36.51907 | -83.54810 | 9977 ft | 267 kts | 213° |
| 2026-05-09 16:26 | 36.50178 | -83.55729 | 9971 ft | 270 kts | 208° |
| 2026-05-09 16:26 | 36.48439 | -83.56598 | 9971 ft | 270 kts | 209° |
| 2026-05-09 16:26 | 36.46692 | -83.57459 | 9973 ft | 270 kts | 208° |
| 2026-05-09 16:27 | 36.44934 | -83.58317 | 9973 ft | 270 kts | 208° |
| 2026-05-09 16:27 | 36.43193 | -83.59162 | 9967 ft | 271 kts | 208° |
| 2026-05-09 16:27 | 36.41436 | -83.60017 | 9971 ft | 271 kts | 208° |
| 2026-05-09 16:27 | 36.39666 | -83.60875 | 9968 ft | 271 kts | 208° |
| 2026-05-09 16:28 | 36.37949 | -83.61706 | 9969 ft | 271 kts | 208° |
| 2026-05-09 16:28 | 36.36219 | -83.62539 | 9965 ft | 271 kts | 208° |
| 2026-05-09 16:28 | 36.34470 | -83.63390 | 9968 ft | 270 kts | 208° |
| 2026-05-09 16:28 | 36.32707 | -83.64242 | 9971 ft | 270 kts | 208° |
| 2026-05-09 16:29 | 36.30946 | -83.65093 | 9971 ft | 271 kts | 207° |
| 2026-05-09 16:29 | 36.29176 | -83.65946 | 9795 ft | 275 kts | 207° |
| 2026-05-09 16:29 | 36.27423 | -83.66794 | 9504 ft | 269 kts | 207° |
| 2026-05-09 16:29 | 36.25672 | -83.67638 | 9208 ft | 266 kts | 208° |
| 2026-05-09 16:30 | 36.23952 | -83.68469 | 8916 ft | 267 kts | 207° |
| 2026-05-09 16:30 | 36.22246 | -83.69292 | 8621 ft | 264 kts | 207° |
| 2026-05-09 16:30 | 36.20529 | -83.70122 | 8331 ft | 263 kts | 207° |
| 2026-05-09 16:30 | 36.18807 | -83.70951 | 8037 ft | 263 kts | 207° |
| 2026-05-09 16:31 | 36.17114 | -83.71764 | 7747 ft | 261 kts | 206° |
| 2026-05-09 16:31 | 36.15398 | -83.72590 | 7449 ft | 260 kts | 206° |
| 2026-05-09 16:31 | 36.13721 | -83.73398 | 7159 ft | 259 kts | 206° |
| 2026-05-09 16:31 | 36.12015 | -83.74218 | 6869 ft | 258 kts | 206° |
| 2026-05-09 16:32 | 36.10352 | -83.75017 | 6591 ft | 257 kts | 206° |
| 2026-05-09 16:32 | 36.09240 | -83.75549 | 6403 ft | 254 kts | 205° |
| 2026-05-09 16:32 | 36.07054 | -83.76603 | 6035 ft | 254 kts | 205° |
| 2026-05-09 16:32 | 36.05403 | -83.77391 | 5753 ft | 253 kts | 205° |
| 2026-05-09 16:33 | 36.03791 | -83.78162 | 5470 ft | 242 kts | 205° |
| 2026-05-09 16:33 | 36.02246 | -83.78902 | 5203 ft | 231 kts | 205° |
| 2026-05-09 16:33 | 36.00776 | -83.79607 | 4949 ft | 222 kts | 205° |
| 2026-05-09 16:33 | 35.99363 | -83.80284 | 4710 ft | 215 kts | 205° |
| 2026-05-09 16:34 | 35.97966 | -83.80959 | 4479 ft | 216 kts | 204° |
| 2026-05-09 16:34 | 35.96560 | -83.81628 | 4247 ft | 217 kts | 204° |
| 2026-05-09 16:34 | 35.95177 | -83.82294 | 4108 ft | 206 kts | 207° |
| 2026-05-09 16:34 | 35.94194 | -83.83384 | 4093 ft | 182 kts | 238° |
| 2026-05-09 16:35 | 35.93434 | -83.84568 | 3977 ft | 173 kts | 230° |
| 2026-05-09 16:35 | 35.92622 | -83.85643 | 3780 ft | 169 kts | 229° |
| 2026-05-09 16:35 | 35.91809 | -83.86681 | 3574 ft | 168 kts | 228° |
| 2026-05-09 16:35 | 35.90989 | -83.87698 | 3365 ft | 168 kts | 227° |
| 2026-05-09 16:36 | 35.90160 | -83.88719 | 3155 ft | 170 kts | 226° |
| 2026-05-09 16:36 | 35.87628 | -83.91793 | 2481 ft | 168 kts | 226° |
| 2026-05-09 16:37 | 35.86863 | -83.92725 | 2330 ft | 161 kts | 225° |
| 2026-05-09 16:37 | 35.86111 | -83.93639 | 2114 ft | 140 kts | 225° |
| 2026-05-09 16:37 | 35.85473 | -83.94418 | 1906 ft | 120 kts | 225° |
| 2026-05-09 16:37 | 35.84974 | -83.95015 | 1726 ft | 109 kts | 226° |
| 2026-05-09 16:38 | 35.84445 | -83.95640 | 1603 ft | 104 kts | 224° |
| 2026-05-09 16:38 | 35.83932 | -83.96264 | 1466 ft | 103 kts | 225° |
| 2026-05-09 16:38 | 35.83437 | -83.96893 | 1353 ft | 103 kts | 227° |
| 2026-05-09 16:38 | 35.82923 | -83.97520 | 1214 ft | 103 kts | 225° |
| 2026-05-09 16:39 | 35.82417 | -83.98132 | 1071 ft | 103 kts | 224° |
| 2026-05-09 16:39 | 35.81916 | -83.98740 | 973 ft | 96 kts | 224° |
| 2026-05-09 16:39 | 35.81542 | -83.99188 | 973 ft | 63 kts | 226° |
| 2026-05-09 16:39 | 35.81336 | -83.99438 | 967 ft | 19 kts | 223° |
| 2026-05-09 16:40 | 35.81251 | -83.99406 | 965 ft | 14 kts | 125° |
| 2026-05-09 16:40 | 35.81276 | -83.99306 | 966 ft | 13 kts | 45° |
| 2026-05-09 16:42 | 35.81268 | -83.98841 | 964 ft | 19 kts | 146° |
| 2026-05-09 16:42 | 35.81179 | -83.98771 | 962 ft | 13 kts | 146° |
| 2026-05-09 16:42 | 35.81156 | -83.98712 | 961 ft | 8 kts | 36° |
| 2026-05-09 16:42 | 35.81187 | -83.98702 | 961 ft | 3 kts | 58° |
| 2026-05-09 16:43 | 35.81186 | -83.98696 | 961 ft | 0 kts | 132° |